Irondale, Missouri
Current Conditions -  °F | °C
As of 12:35 AM on Thursday 29 Jan 2015 (Local Time) from KFAM Reporting Station
Clear Clear  
Wind Chill: 42°   Ceiling: Unl
Heat Index: 48°   Visibility: 10mi
Dew Point: 36°   Wind: 18mph
Humidity: 62%   Direction: 200°SSW
Pressure: 29.88"   Gusts: 28mph
Location:  37.83°N, 90.68°W
Report Text: KFAM 290635Z AUTO 20016G24KT 10SM CLR 09/02 A2988 RMK AO1
Loading
Personal Weather Stations






























Interactive Weather Map New forecast layout! Learn more

10-Day Weather Forecast

Advertisements
Track Severe Weather on mobile